Time;durP1;ratioP1;P1;durP2;ratioP2;P2;SDS_P1;SDS_P2;PMS_P1;PMS_P2;Temp;Humidity;BMP_temperature;BMP_pressure;BME280_temperature;BME280_humidity;BME280_pressure;Samples;Min_cycle;Max_cycle;Signal;HPM_P1;HPM_P2
2021/05/11 00:00:22;;;;;;;;;;;24.10;64.10;;;;;;5104623;28;19964;-53
2021/05/11 00:02:48;;;;;;;;;;;24.10;64.10;;;;;;5087662;28;19904;-52
2021/05/11 00:05:14;;;;;;;;;;;24.10;64.10;;;;;;5101797;28;20304;-53
2021/05/11 00:07:40;;;;;;;;;;;24.10;64.20;;;;;;5105114;28;19908;-50
2021/05/11 00:10:06;;;;;;;;;;;24.10;64.20;;;;;;5104789;28;19999;-50
2021/05/11 00:12:33;;;;;;;;;;;24.10;64.20;;;;;;5105026;28;20438;-52
2021/05/11 00:14:59;;;;;;;;;;;24.10;64.20;;;;;;5105070;28;19975;-52
2021/05/11 00:17:25;;;;;;;;;;;24.10;64.30;;;;;;5104985;28;19904;-52
2021/05/11 00:19:51;;;;;;;;;;;24.10;64.20;;;;;;5104602;28;19908;-52
2021/05/11 00:22:17;;;;;;;;;;;24.10;64.50;;;;;;5105044;28;19919;-51
2021/05/11 00:24:43;;;;;;;;;;;24.10;64.20;;;;;;5105259;28;19912;-54
2021/05/11 00:27:08;;;;;;;;;;;24.10;64.10;;;;;;5104906;28;19983;-54
2021/05/11 00:29:34;;;;;;;;;;;24.10;64.10;;;;;;5103886;28;19911;-53
2021/05/11 00:32:00;;;;;;;;;;;24.10;64.10;;;;;;5105223;28;19914;-53
2021/05/11 00:34:26;;;;;;;;;;;24.00;64.00;;;;;;5105368;28;19923;-51
2021/05/11 00:36:52;;;;;;;;;;;24.00;64.00;;;;;;5103671;28;19904;-52
2021/05/11 00:39:18;;;;;;;;;;;24.00;64.00;;;;;;5104238;28;19939;-50
2021/05/11 00:41:44;;;;;;;;;;;24.00;64.00;;;;;;5104948;28;20362;-50
2021/05/11 00:44:19;;;;;;;;;;;24.00;64.00;;;;;;5104972;28;19987;-53
2021/05/11 00:46:54;;;;;;;;;;;24.00;64.10;;;;;;5104944;28;19907;-53
2021/05/11 00:49:20;;;;;;;;;;;24.00;64.00;;;;;;5104606;28;19916;-50
2021/05/11 00:51:46;;;;;;;;;;;24.00;64.80;;;;;;5104645;28;19973;-52
2021/05/11 00:54:11;;;;;;;;;;;24.00;64.10;;;;;;5086427;28;19910;-51
2021/05/11 00:56:38;;;;;;;;;;;24.00;64.20;;;;;;5104455;28;19958;-55
2021/05/11 00:59:08;;;;;;;;;;;24.00;64.20;;;;;;5103645;28;19912;-53
2021/05/11 01:01:34;;;;;;;;;;;23.90;64.10;;;;;;5100590;28;19911;-53
2021/05/11 01:04:00;;;;;;;;;;;23.90;64.10;;;;;;5100320;28;19912;-52
2021/05/11 01:06:26;;;;;;;;;;;23.90;64.20;;;;;;5104315;28;19916;-52
2021/05/11 01:08:51;;;;;;;;;;;23.90;64.20;;;;;;5103247;28;20440;-52
2021/05/11 01:11:17;;;;;;;;;;;23.90;64.20;;;;;;5103786;28;19910;-50
2021/05/11 01:13:43;;;;;;;;;;;23.90;64.20;;;;;;5103850;28;19920;-52
2021/05/11 01:16:09;;;;;;;;;;;23.80;64.20;;;;;;5103572;28;19911;-54
2021/05/11 01:18:36;;;;;;;;;;;23.80;64.20;;;;;;5086056;28;19930;-49
2021/05/11 01:21:19;;;;;;;;;;;23.80;64.10;;;;;;5103142;28;19908;-50
2021/05/11 01:26:25;;;;;;;;;;;23.80;64.10;;;;;;5104318;28;20256;-48
2021/05/11 01:29:16;;;;;;;;;;;23.80;64.00;;;;;;5102279;28;19908;-46
2021/05/11 01:56:15;;;;;;;;;;;23.70;64.80;;;;;;5085838;28;19960;-55
2021/05/11 02:22:37;;;;;;;;;;;23.60;65.00;;;;;;5102828;28;20372;-54
2021/05/11 02:23:29;;;;;;;;;;;23.60;65.00;;;;;;5099729;28;19911;-54
2021/05/11 02:25:56;;;;;;;;;;;23.60;65.10;;;;;;5102942;28;20730;-55
2021/05/11 02:28:23;;;;;;;;;;;23.60;65.10;;;;;;5102280;28;19951;-56
2021/05/11 02:30:49;;;;;;;;;;;23.60;65.20;;;;;;5101851;28;19904;-55
2021/05/11 02:33:15;;;;;;;;;;;23.60;65.10;;;;;;5102423;28;19942;-55
2021/05/11 02:35:41;;;;;;;;;;;23.60;65.00;;;;;;5102250;28;19908;-54
2021/05/11 02:38:07;;;;;;;;;;;23.50;64.90;;;;;;5102159;28;19911;-53
2021/05/11 02:40:33;;;;;;;;;;;23.50;65.00;;;;;;5102460;28;19987;-55
2021/05/11 02:43:03;;;;;;;;;;;23.50;65.10;;;;;;5102537;28;19908;-56
2021/05/11 02:45:30;;;;;;;;;;;23.50;65.00;;;;;;5083869;28;19916;-53
2021/05/11 02:47:56;;;;;;;;;;;23.50;65.00;;;;;;5102613;28;19932;-56
2021/05/11 02:50:26;;;;;;;;;;;23.50;65.00;;;;;;5102133;28;19904;-54
2021/05/11 02:52:51;;;;;;;;;;;23.50;65.00;;;;;;5101770;28;19915;-55
2021/05/11 02:55:17;;;;;;;;;;;23.40;65.00;;;;;;5102352;28;19903;-54
2021/05/11 02:57:43;;;;;;;;;;;23.40;65.00;;;;;;5101949;28;19972;-55
2021/05/11 03:00:10;;;;;;;;;;;23.40;65.00;;;;;;5102159;28;19904;-53
2021/05/11 03:02:36;;;;;;;;;;;23.40;65.00;;;;;;5106028;28;19915;-54
2021/05/11 03:05:02;;;;;;;;;;;23.40;65.00;;;;;;5106664;28;19916;-55
2021/05/11 03:07:28;;;;;;;;;;;23.40;65.00;;;;;;5106219;28;19911;-55
2021/05/11 03:09:54;;;;;;;;;;;23.40;65.00;;;;;;5105475;28;19906;-55
2021/05/11 03:12:20;;;;;;;;;;;23.30;64.90;;;;;;5105579;28;19926;-56
2021/05/11 03:14:46;;;;;;;;;;;23.30;65.00;;;;;;5106310;28;19950;-54
2021/05/11 03:17:12;;;;;;;;;;;23.30;65.00;;;;;;5106711;28;19908;-55
2021/05/11 03:19:38;;;;;;;;;;;23.30;65.00;;;;;;5105852;28;19908;-57
2021/05/11 03:22:03;;;;;;;;;;;23.30;64.90;;;;;;5106159;28;20399;-56
2021/05/11 03:24:30;;;;;;;;;;;23.30;64.90;;;;;;5106367;28;19912;-56
2021/05/11 03:26:56;;;;;;;;;;;23.30;64.90;;;;;;5106269;28;20007;-55
2021/05/11 03:29:22;;;;;;;;;;;23.30;64.90;;;;;;5087825;28;19958;-56
2021/05/11 03:31:48;;;;;;;;;;;23.30;64.90;;;;;;5105779;28;19904;-55
2021/05/11 03:34:13;;;;;;;;;;;23.20;64.90;;;;;;5106233;28;19961;-55
2021/05/11 03:36:40;;;;;;;;;;;23.20;64.90;;;;;;5106023;28;19915;-56
2021/05/11 03:39:07;;;;;;;;;;;23.20;64.90;;;;;;5105442;28;19945;-54
2021/05/11 03:44:25;;;;;;;;;;;23.20;65.00;;;;;;5099683;28;19922;-50
2021/05/11 03:46:51;;;;;;;;;;;23.20;64.90;;;;;;5102220;28;19908;-54
2021/05/11 03:49:17;;;;;;;;;;;23.10;64.90;;;;;;5105447;28;19958;-54
2021/05/11 03:51:43;;;;;;;;;;;23.10;64.90;;;;;;5105793;28;19979;-54
2021/05/11 03:54:09;;;;;;;;;;;23.10;64.90;;;;;;5105461;28;20002;-56
2021/05/11 03:56:35;;;;;;;;;;;23.10;64.90;;;;;;5105501;28;19915;-56
2021/05/11 03:59:02;;;;;;;;;;;23.10;65.00;;;;;;5105338;28;19908;-55
2021/05/11 04:01:27;;;;;;;;;;;23.10;65.00;;;;;;5105387;28;19904;-53
2021/05/11 04:03:53;;;;;;;;;;;23.10;65.00;;;;;;5104133;28;19943;-54
2021/05/11 04:06:19;;;;;;;;;;;23.10;65.00;;;;;;5105387;28;19915;-55
2021/05/11 04:08:59;;;;;;;;;;;23.00;65.00;;;;;;5105243;28;19908;-56
2021/05/11 04:16:30;;;;;;;;;;;23.00;65.10;;;;;;5105055;28;19912;-53
2021/05/11 04:18:56;;;;;;;;;;;23.00;65.10;;;;;;5105068;28;19986;-55
2021/05/11 04:21:22;;;;;;;;;;;23.00;65.10;;;;;;5105144;28;19908;-55
2021/05/11 04:23:50;;;;;;;;;;;23.00;65.10;;;;;;5104385;28;19908;-56
2021/05/11 04:26:16;;;;;;;;;;;23.00;65.20;;;;;;5104914;28;19912;-55
2021/05/11 04:28:41;;;;;;;;;;;22.90;65.00;;;;;;5086358;28;20007;-54
2021/05/11 04:31:08;;;;;;;;;;;22.90;65.10;;;;;;5104704;28;19908;-54
2021/05/11 04:33:33;;;;;;;;;;;22.90;65.10;;;;;;5104745;28;19931;-56
2021/05/11 04:35:59;;;;;;;;;;;22.90;65.10;;;;;;5104807;28;19926;-53
2021/05/11 04:38:25;;;;;;;;;;;22.90;65.90;;;;;;5104356;28;19908;-54
2021/05/11 04:40:51;;;;;;;;;;;22.90;65.10;;;;;;5104621;28;20364;-55
2021/05/11 04:43:17;;;;;;;;;;;22.80;65.00;;;;;;5104506;28;19904;-59
2021/05/11 04:45:44;;;;;;;;;;;22.80;65.10;;;;;;5104485;28;19915;-56
2021/05/11 04:48:10;;;;;;;;;;;22.80;65.10;;;;;;5104889;28;19945;-56
2021/05/11 04:50:36;;;;;;;;;;;22.80;65.10;;;;;;5086322;28;20281;-54
2021/05/11 04:53:02;;;;;;;;;;;22.80;65.10;;;;;;5104018;28;19908;-57
2021/05/11 04:55:28;;;;;;;;;;;22.80;65.10;;;;;;5086143;28;19908;-57
2021/05/11 04:57:54;;;;;;;;;;;22.80;65.10;;;;;;5103992;28;19926;-56
2021/05/11 05:00:20;;;;;;;;;;;22.80;65.10;;;;;;5103784;28;20515;-54
2021/05/11 05:02:47;;;;;;;;;;;22.70;65.00;;;;;;5104470;28;19934;-54
2021/05/11 05:05:14;;;;;;;;;;;22.70;65.00;;;;;;5104116;28;19915;-55
2021/05/11 05:07:40;;;;;;;;;;;22.70;65.10;;;;;;5103659;28;19904;-56
2021/05/11 05:10:06;;;;;;;;;;;22.70;65.00;;;;;;5103683;28;20357;-55
2021/05/11 05:12:32;;;;;;;;;;;22.70;65.10;;;;;;5103978;28;19920;-54
2021/05/11 05:14:58;;;;;;;;;;;22.70;65.10;;;;;;5103049;28;19915;-57
2021/05/11 05:17:24;;;;;;;;;;;22.70;65.20;;;;;;5103271;28;19959;-54
2021/05/11 05:19:50;;;;;;;;;;;22.70;65.10;;;;;;5103682;28;19914;-53
2021/05/11 05:22:16;;;;;;;;;;;22.60;65.10;;;;;;5103870;28;20384;-53
2021/05/11 05:24:51;;;;;;;;;;;22.60;65.20;;;;;;5102891;28;19930;-55
2021/05/11 05:27:25;;;;;;;;;;;22.60;65.20;;;;;;5103504;28;19904;-54
2021/05/11 05:29:51;;;;;;;;;;;22.60;65.20;;;;;;5102998;28;19908;-55
2021/05/11 05:32:17;;;;;;;;;;;22.60;65.20;;;;;;5085472;28;19939;-56
2021/05/11 05:34:43;;;;;;;;;;;22.60;65.30;;;;;;5103445;28;20299;-55
2021/05/11 05:37:09;;;;;;;;;;;22.60;65.30;;;;;;5103159;28;19904;-56
2021/05/11 05:39:39;;;;;;;;;;;22.60;65.30;;;;;;5102867;28;19931;-56
2021/05/11 05:42:05;;;;;;;;;;;22.60;65.40;;;;;;5102992;28;19931;-55
2021/05/11 05:44:31;;;;;;;;;;;22.60;65.40;;;;;;5103208;28;19916;-55
2021/05/11 05:46:57;;;;;;;;;;;22.50;65.30;;;;;;5103358;28;19912;-55
2021/05/11 05:49:25;;;;;;;;;;;22.50;65.30;;;;;;5111341;28;19952;-56
2021/05/11 05:51:51;;;;;;;;;;;22.50;65.20;;;;;;5103758;28;19915;-56
2021/05/11 05:54:17;;;;;;;;;;;22.50;65.30;;;;;;5101719;28;19908;-54
2021/05/11 05:56:43;;;;;;;;;;;22.50;65.30;;;;;;5103165;28;19973;-55
2021/05/11 05:59:09;;;;;;;;;;;22.50;65.30;;;;;;5084102;28;20377;-54
2021/05/11 06:01:35;;;;;;;;;;;22.40;65.20;;;;;;5103179;28;19908;-55
2021/05/11 06:04:13;;;;;;;;;;;22.40;65.20;;;;;;5103263;28;19916;-56
2021/05/11 06:06:40;;;;;;;;;;;22.40;65.20;;;;;;5100090;28;20288;-55
2021/05/11 06:09:16;;;;;;;;;;;22.40;65.20;;;;;;5102084;28;19908;-56
2021/05/11 06:11:57;;;;;;;;;;;22.40;65.20;;;;;;5102507;28;19935;-55
2021/05/11 06:19:41;;;;;;;;;;;22.40;65.30;;;;;;5099216;28;19908;-56
2021/05/11 06:22:07;;;;;;;;;;;22.30;65.30;;;;;;5103413;28;20312;-53
2021/05/11 06:24:33;;;;;;;;;;;22.30;65.40;;;;;;5102822;28;19912;-54
2021/05/11 06:26:59;;;;;;;;;;;22.30;65.40;;;;;;5084223;28;19983;-55
2021/05/11 06:29:27;;;;;;;;;;;22.30;65.40;;;;;;5102283;28;19922;-58
2021/05/11 06:31:52;;;;;;;;;;;22.30;65.40;;;;;;5102924;28;20015;-57
2021/05/11 06:34:18;;;;;;;;;;;22.30;65.40;;;;;;5102866;28;19908;-56
2021/05/11 06:36:44;;;;;;;;;;;22.30;65.50;;;;;;5102001;28;19904;-55
2021/05/11 06:39:12;;;;;;;;;;;22.30;65.50;;;;;;5102017;28;19937;-56
2021/05/11 06:41:40;;;;;;;;;;;22.20;65.50;;;;;;5102274;28;19950;-54
2021/05/11 06:54:39;;;;;;;;;;;22.20;65.40;;;;;;5102119;28;19984;-57
2021/05/11 06:57:06;;;;;;;;;;;22.20;65.40;;;;;;5103640;28;19904;-56
2021/05/11 06:59:32;;;;;;;;;;;22.10;65.30;;;;;;5107273;28;19987;-55
2021/05/11 07:02:00;;;;;;;;;;;22.10;65.30;;;;;;5102215;28;19943;-54
2021/05/11 07:04:26;;;;;;;;;;;22.10;65.30;;;;;;5101307;28;19920;-56
2021/05/11 07:06:52;;;;;;;;;;;22.10;65.30;;;;;;5110105;28;20622;-54
2021/05/11 07:09:27;;;;;;;;;;;22.10;65.40;;;;;;5101532;28;19908;-57
2021/05/11 07:14:22;;;;;;;;;;;22.10;65.40;;;;;;5098019;28;19923;-55
2021/05/11 07:16:48;;;;;;;;;;;22.10;65.40;;;;;;5101770;28;19904;-56
2021/05/11 07:19:13;;;;;;;;;;;22.00;65.40;;;;;;5101604;28;19951;-56
2021/05/11 07:21:39;;;;;;;;;;;22.00;65.40;;;;;;5101758;28;19908;-56
2021/05/11 07:24:06;;;;;;;;;;;22.00;65.40;;;;;;5101441;28;19947;-55
2021/05/11 07:26:32;;;;;;;;;;;22.00;65.40;;;;;;5102018;28;19908;-56
2021/05/11 07:31:33;;;;;;;;;;;22.00;65.50;;;;;;5101936;28;19904;-57
2021/05/11 07:34:01;;;;;;;;;;;22.00;65.50;;;;;;5102204;28;20333;-57
2021/05/11 07:36:27;;;;;;;;;;;22.00;65.50;;;;;;5098130;28;20364;-55
2021/05/11 07:38:53;;;;;;;;;;;22.00;65.50;;;;;;5101838;28;19914;-57
2021/05/11 07:41:19;;;;;;;;;;;22.00;65.50;;;;;;5101185;28;19911;-56
2021/05/11 07:43:48;;;;;;;;;;;22.00;65.50;;;;;;5101946;28;19938;-56
2021/05/11 07:51:41;;;;;;;;;;;21.90;65.40;;;;;;5104780;28;19947;-55
2021/05/11 08:05:11;;;;;;;;;;;21.90;65.50;;;;;;5108046;28;19964;-56
2021/05/11 08:15:40;;;;;;;;;;;21.80;65.40;;;;;;5079414;28;19908;-56
2021/05/11 08:18:25;;;;;;;;;;;21.80;65.50;;;;;;5104469;28;19915;-55
2021/05/11 08:29:05;;;;;;;;;;;21.80;65.50;;;;;;5104770;28;19915;-56
2021/05/11 08:31:30;;;;;;;;;;;21.80;65.70;;;;;;5104223;28;19908;-56
2021/05/11 08:33:56;;;;;;;;;;;21.80;65.60;;;;;;5105008;28;19912;-57
2021/05/11 08:36:22;;;;;;;;;;;21.70;65.50;;;;;;5104541;28;19908;-57
2021/05/11 08:38:48;;;;;;;;;;;21.70;65.50;;;;;;5104484;28;19910;-58
2021/05/11 08:41:14;;;;;;;;;;;21.70;65.50;;;;;;5101075;28;19908;-58
2021/05/11 08:43:44;;;;;;;;;;;21.70;65.60;;;;;;5104455;28;19955;-57
2021/05/11 08:46:11;;;;;;;;;;;21.70;65.60;;;;;;5104586;28;19912;-56
2021/05/11 08:48:37;;;;;;;;;;;21.70;65.50;;;;;;5104872;28;20014;-56
2021/05/11 08:51:09;;;;;;;;;;;21.70;65.60;;;;;;5104145;28;20015;-57
2021/05/11 09:24:30;;;;;;;;;;;21.60;65.60;;;;;;5103418;28;19915;-56
2021/05/11 09:26:48;;;;;;;;;;;21.60;65.60;;;;;;5101247;28;20006;-56
2021/05/11 09:56:57;;;;;;;;;;;21.50;65.70;;;;;;5103157;28;19915;-55
2021/05/11 10:10:57;;;;;;;;;;;21.50;65.70;;;;;;5083610;28;20000;-55
2021/05/11 10:41:47;;;;;;;;;;;21.40;65.80;;;;;;5102086;28;19961;-57
2021/05/11 10:47:01;;;;;;;;;;;21.40;65.80;;;;;;5101835;28;19904;-57
2021/05/11 10:49:27;;;;;;;;;;;21.40;65.80;;;;;;5099361;28;19912;-55
2021/05/11 10:52:03;;;;;;;;;;;21.40;65.70;;;;;;5102545;28;20080;-58
2021/05/11 10:55:05;;;;;;;;;;;21.40;65.80;;;;;;5098902;28;19908;-58
2021/05/11 10:57:45;;;;;;;;;;;21.30;65.70;;;;;;5102213;28;19912;-55
2021/05/11 11:03:14;;;;;;;;;;;21.30;65.70;;;;;;5099491;28;19939;-55
2021/05/11 11:05:40;;;;;;;;;;;21.30;65.70;;;;;;5106411;28;19912;-56
2021/05/11 11:08:33;;;;;;;;;;;21.30;65.70;;;;;;5102552;28;19986;-58
2021/05/11 11:11:10;;;;;;;;;;;21.30;65.70;;;;;;5098468;28;19904;-58
2021/05/11 11:13:40;;;;;;;;;;;21.30;65.70;;;;;;5098831;28;19979;-55
2021/05/11 11:16:06;;;;;;;;;;;21.30;65.70;;;;;;5101472;28;19915;-56
2021/05/11 11:18:32;;;;;;;;;;;21.30;65.70;;;;;;5084025;28;19917;-57
2021/05/11 11:21:07;;;;;;;;;;;21.30;65.90;;;;;;5101400;28;19904;-56
2021/05/11 11:23:43;;;;;;;;;;;21.30;65.70;;;;;;5106383;28;20044;-56
2021/05/11 11:26:10;;;;;;;;;;;21.30;65.80;;;;;;5102730;28;19979;-55
2021/05/11 11:28:36;;;;;;;;;;;21.20;65.80;;;;;;5106488;28;19907;-56
2021/05/11 11:31:02;;;;;;;;;;;21.30;65.80;;;;;;5106051;28;19930;-57
2021/05/11 11:33:28;;;;;;;;;;;21.20;66.50;;;;;;5106015;28;19904;-55
2021/05/11 11:35:54;;;;;;;;;;;21.20;65.80;;;;;;5106691;28;20034;-56
2021/05/11 11:38:21;;;;;;;;;;;21.20;65.80;;;;;;5106373;28;19965;-56
2021/05/11 11:40:50;;;;;;;;;;;21.20;65.90;;;;;;5105387;28;19912;-56
2021/05/11 11:43:24;;;;;;;;;;;21.20;65.90;;;;;;5086826;28;19908;-56
2021/05/11 11:45:50;;;;;;;;;;;21.20;65.80;;;;;;5105148;28;19916;-57
2021/05/11 11:48:19;;;;;;;;;;;21.20;65.90;;;;;;5087437;28;19952;-57
2021/05/11 11:50:52;;;;;;;;;;;21.20;65.80;;;;;;5105858;28;20364;-56
2021/05/11 11:53:22;;;;;;;;;;;21.20;65.90;;;;;;5102421;28;19904;-52
2021/05/11 11:56:24;;;;;;;;;;;21.20;65.70;;;;;;5106105;28;19904;-56
2021/05/11 11:58:46;;;;;;;;;;;21.20;65.90;;;;;;5101792;28;20505;-56
2021/05/11 12:01:15;;;;;;;;;;;21.20;65.80;;;;;;5104941;28;19907;-56
2021/05/11 12:03:41;;;;;;;;;;;21.20;65.80;;;;;;5105065;28;19951;-58
2021/05/11 12:06:07;;;;;;;;;;;21.10;65.70;;;;;;5107364;28;19920;-57
2021/05/11 12:08:33;;;;;;;;;;;21.20;65.90;;;;;;5107216;28;19912;-56
2021/05/11 12:11:00;;;;;;;;;;;21.10;65.70;;;;;;5104756;28;19904;-57
2021/05/11 12:13:27;;;;;;;;;;;21.20;65.80;;;;;;5104666;28;19945;-57
2021/05/11 12:16:12;;;;;;;;;;;21.10;65.90;;;;;;5104779;28;19912;-58
2021/05/11 12:18:42;;;;;;;;;;;21.10;65.80;;;;;;5103525;28;20355;-57
2021/05/11 12:21:08;;;;;;;;;;;21.10;65.80;;;;;;5104880;28;19930;-57
2021/05/11 12:23:34;;;;;;;;;;;21.10;65.80;;;;;;5105420;28;19904;-56
2021/05/11 12:26:00;;;;;;;;;;;21.10;65.90;;;;;;5104445;28;19919;-57
2021/05/11 12:28:35;;;;;;;;;;;21.10;65.80;;;;;;5105422;28;19908;-55
2021/05/11 12:31:02;;;;;;;;;;;21.10;65.90;;;;;;5101494;28;19909;-57
2021/05/11 12:33:41;;;;;;;;;;;21.10;65.90;;;;;;5104959;28;19904;-57
2021/05/11 12:36:14;;;;;;;;;;;21.10;65.90;;;;;;5114606;28;19908;-57
2021/05/11 12:38:40;;;;;;;;;;;21.10;66.00;;;;;;5111224;28;19991;-57
2021/05/11 12:41:11;;;;;;;;;;;21.10;65.90;;;;;;5104495;28;20367;-57
2021/05/11 12:43:38;;;;;;;;;;;21.10;65.90;;;;;;5104900;28;19912;-57
2021/05/11 12:46:13;;;;;;;;;;;21.10;65.70;;;;;;5104756;28;19912;-57
2021/05/11 12:48:49;;;;;;;;;;;21.10;65.80;;;;;;5104084;28;19904;-57
2021/05/11 12:51:24;;;;;;;;;;;21.10;65.80;;;;;;5104203;28;19979;-58
2021/05/11 12:53:50;;;;;;;;;;;21.10;65.80;;;;;;5104434;28;19912;-56
2021/05/11 13:35:28;;;;;;;;;;;21.10;65.80;;;;;;5103835;28;19908;-58
2021/05/11 13:37:54;;;;;;;;;;;21.10;65.70;;;;;;5103399;28;19950;-58
2021/05/11 13:40:20;;;;;;;;;;;21.10;65.70;;;;;;5102737;28;19908;-56
2021/05/11 13:42:46;;;;;;;;;;;21.10;65.70;;;;;;5103548;28;19908;-56
2021/05/11 13:45:12;;;;;;;;;;;21.10;65.70;;;;;;5103072;28;19916;-56
2021/05/11 13:47:40;;;;;;;;;;;21.10;65.70;;;;;;5102624;28;20353;-57
2021/05/11 13:50:07;;;;;;;;;;;21.10;65.70;;;;;;5084512;28;20564;-56
2021/05/11 13:52:33;;;;;;;;;;;21.10;65.70;;;;;;5103124;28;20343;-58
2021/05/11 13:55:05;;;;;;;;;;;21.10;65.70;;;;;;5103465;28;19904;-57
2021/05/11 14:05:13;;;;;;;;;;;21.10;65.60;;;;;;5103620;28;19915;-56
2021/05/11 14:07:39;;;;;;;;;;;21.10;65.50;;;;;;5102919;28;20470;-57
2021/05/11 14:10:05;;;;;;;;;;;21.20;65.60;;;;;;5104031;28;19915;-57
2021/05/11 14:12:31;;;;;;;;;;;21.20;65.70;;;;;;5102382;28;19916;-56
2021/05/11 14:14:57;;;;;;;;;;;21.20;65.60;;;;;;5084522;28;19919;-55
2021/05/11 14:17:22;;;;;;;;;;;21.20;65.60;;;;;;5102207;28;19907;-57
2021/05/11 14:19:50;;;;;;;;;;;21.20;65.60;;;;;;5102131;28;19904;-56
2021/05/11 14:22:17;;;;;;;;;;;21.20;65.70;;;;;;5102159;28;19913;-55
2021/05/11 14:24:43;;;;;;;;;;;21.20;65.70;;;;;;5101654;28;19919;-56
2021/05/11 14:27:09;;;;;;;;;;;21.20;66.50;;;;;;5101682;28;19904;-57
2021/05/11 14:29:35;;;;;;;;;;;21.20;65.80;;;;;;5101811;28;19935;-57
2021/05/11 14:32:01;;;;;;;;;;;21.30;65.90;;;;;;5101395;28;19915;-57
2021/05/11 14:34:27;;;;;;;;;;;21.30;66.00;;;;;;5101924;28;19991;-56
2021/05/11 14:36:52;;;;;;;;;;;21.30;66.00;;;;;;5101774;28;19915;-57
2021/05/11 14:39:18;;;;;;;;;;;21.30;66.10;;;;;;5101503;28;19904;-55
2021/05/11 14:41:45;;;;;;;;;;;21.40;66.10;;;;;;5101274;28;19904;-56
2021/05/11 14:44:11;;;;;;;;;;;21.40;66.20;;;;;;5101920;28;19904;-57
2021/05/11 14:46:37;;;;;;;;;;;21.40;66.20;;;;;;5101483;28;19912;-57
2021/05/11 14:49:03;;;;;;;;;;;21.40;66.30;;;;;;5101566;28;19904;-58
2021/05/11 14:51:29;;;;;;;;;;;21.40;66.40;;;;;;5100952;28;19935;-56
2021/05/11 14:53:55;;;;;;;;;;;21.40;66.40;;;;;;5101885;28;20339;-58
2021/05/11 14:56:21;;;;;;;;;;;21.50;66.50;;;;;;5100069;28;19995;-57
2021/05/11 14:58:47;;;;;;;;;;;21.50;66.50;;;;;;5101428;28;19912;-57
2021/05/11 15:01:13;;;;;;;;;;;21.50;66.50;;;;;;5100941;28;20254;-58
2021/05/11 15:03:39;;;;;;;;;;;21.50;66.50;;;;;;5100516;28;19908;-57
2021/05/11 15:06:05;;;;;;;;;;;21.50;66.50;;;;;;5101018;28;19920;-57
2021/05/11 15:08:31;;;;;;;;;;;21.50;66.50;;;;;;5101615;28;19908;-55
2021/05/11 15:10:56;;;;;;;;;;;21.50;66.20;;;;;;5100187;28;19907;-57
2021/05/11 15:13:23;;;;;;;;;;;21.60;66.20;;;;;;5045500;28;1588356;-58
2021/05/11 15:15:51;;;;;;;;;;;21.60;66.20;;;;;;5102535;28;19961;-57
2021/05/11 15:18:20;;;;;;;;;;;21.60;66.30;;;;;;5102334;28;19914;-57
2021/05/11 15:20:46;;;;;;;;;;;21.60;66.40;;;;;;5098238;28;19922;-58
2021/05/11 15:23:11;;;;;;;;;;;21.60;66.50;;;;;;5100767;28;19939;-57
2021/05/11 15:25:37;;;;;;;;;;;21.60;66.50;;;;;;5101826;28;19920;-58
2021/05/11 15:28:03;;;;;;;;;;;21.70;66.60;;;;;;5102240;28;19908;-57
2021/05/11 15:30:30;;;;;;;;;;;21.70;66.70;;;;;;5101148;28;19926;-58
2021/05/11 15:32:56;;;;;;;;;;;21.70;66.50;;;;;;5101763;28;19908;-57
2021/05/11 15:35:32;;;;;;;;;;;21.70;66.50;;;;;;5102170;28;19908;-57
2021/05/11 15:38:01;;;;;;;;;;;21.70;66.50;;;;;;5099120;28;19912;-58
2021/05/11 15:40:28;;;;;;;;;;;21.80;66.80;;;;;;5101448;28;19918;-58
2021/05/11 15:42:55;;;;;;;;;;;21.80;67.00;;;;;;5101581;28;19911;-58
2021/05/11 15:45:21;;;;;;;;;;;21.80;67.10;;;;;;5102188;28;19923;-58
2021/05/11 15:47:53;;;;;;;;;;;21.80;67.30;;;;;;5083380;28;19934;-58
2021/05/11 15:50:23;;;;;;;;;;;21.90;67.30;;;;;;5101793;28;19908;-56
2021/05/11 15:52:49;;;;;;;;;;;21.90;67.20;;;;;;5101869;28;20006;-59
2021/05/11 15:55:15;;;;;;;;;;;21.90;67.40;;;;;;5103868;28;19904;-59
2021/05/11 15:57:41;;;;;;;;;;;21.90;68.40;;;;;;5107544;28;19907;-58
2021/05/11 16:00:08;;;;;;;;;;;22.00;67.90;;;;;;5105645;28;19912;-58
2021/05/11 16:02:33;;;;;;;;;;;22.00;67.90;;;;;;5101757;28;19905;-58
2021/05/11 16:04:59;;;;;;;;;;;22.00;67.80;;;;;;5102094;28;19912;-58
2021/05/11 16:07:25;;;;;;;;;;;22.00;67.80;;;;;;5101896;28;20627;-58
2021/05/11 16:09:51;;;;;;;;;;;22.10;67.60;;;;;;5105137;28;19904;-58
2021/05/11 16:12:19;;;;;;;;;;;22.10;67.80;;;;;;5104881;28;19916;-58
2021/05/11 16:14:44;;;;;;;;;;;22.10;67.70;;;;;;5105271;28;19916;-58
2021/05/11 16:17:10;;;;;;;;;;;22.10;67.50;;;;;;5105085;28;19915;-58
2021/05/11 16:19:36;;;;;;;;;;;22.10;67.70;;;;;;5105025;28;19915;-59
2021/05/11 16:22:02;;;;;;;;;;;22.20;67.70;;;;;;5104723;28;19908;-58
2021/05/11 16:24:28;;;;;;;;;;;22.20;67.60;;;;;;5105124;28;19938;-58
2021/05/11 16:26:54;;;;;;;;;;;22.20;67.50;;;;;;5105140;28;19908;-58
2021/05/11 16:29:20;;;;;;;;;;;22.20;67.30;;;;;;5105087;28;20452;-58
2021/05/11 16:31:47;;;;;;;;;;;22.30;67.30;;;;;;5103388;28;19908;-58
2021/05/11 16:34:13;;;;;;;;;;;22.30;67.30;;;;;;5104842;28;19907;-59
2021/05/11 16:36:39;;;;;;;;;;;22.30;67.30;;;;;;5104637;28;19958;-58
2021/05/11 16:39:05;;;;;;;;;;;22.30;67.50;;;;;;5104842;28;19927;-58
2021/05/11 16:41:31;;;;;;;;;;;22.40;67.70;;;;;;5103705;28;19930;-59
2021/05/11 16:43:58;;;;;;;;;;;22.40;67.80;;;;;;5104672;28;19912;-58
2021/05/11 16:46:24;;;;;;;;;;;22.40;67.70;;;;;;5104183;28;19919;-57
2021/05/11 16:48:50;;;;;;;;;;;22.40;67.80;;;;;;5104774;28;19908;-58
2021/05/11 16:51:16;;;;;;;;;;;22.50;67.90;;;;;;5103822;28;19914;-58
2021/05/11 16:53:42;;;;;;;;;;;22.50;67.80;;;;;;5104990;28;19926;-58
2021/05/11 16:56:10;;;;;;;;;;;22.50;68.10;;;;;;5104710;28;19953;-58
2021/05/11 16:58:36;;;;;;;;;;;22.50;68.40;;;;;;5104796;28;20439;-58
2021/05/11 17:01:02;;;;;;;;;;;22.60;67.20;;;;;;5103215;28;20467;-58
2021/05/11 17:03:28;;;;;;;;;;;22.60;67.00;;;;;;5103829;28;20598;-58
2021/05/11 17:05:54;;;;;;;;;;;22.60;68.60;;;;;;5104192;28;19912;-58
2021/05/11 17:08:20;;;;;;;;;;;22.60;68.00;;;;;;5103877;28;19934;-59
2021/05/11 17:10:46;;;;;;;;;;;22.70;67.70;;;;;;5103541;28;19910;-59
2021/05/11 17:13:12;;;;;;;;;;;22.70;67.90;;;;;;5103720;28;19941;-58
2021/05/11 17:15:38;;;;;;;;;;;22.70;67.80;;;;;;5104049;28;19912;-59
2021/05/11 17:18:05;;;;;;;;;;;22.80;67.50;;;;;;5103439;28;19904;-59
2021/05/11 17:20:31;;;;;;;;;;;22.80;67.30;;;;;;5106010;28;19918;-58
2021/05/11 17:22:57;;;;;;;;;;;22.80;67.40;;;;;;5104182;28;19904;-59
2021/05/11 17:25:22;;;;;;;;;;;22.80;67.50;;;;;;5103869;28;20426;-59
2021/05/11 17:27:50;;;;;;;;;;;22.90;67.30;;;;;;5102599;28;19904;-59
2021/05/11 17:30:16;;;;;;;;;;;22.90;67.10;;;;;;5103318;28;19930;-58
2021/05/11 17:32:44;;;;;;;;;;;23.00;67.30;;;;;;5103740;28;19908;-59
2021/05/11 17:35:11;;;;;;;;;;;23.00;67.20;;;;;;5085974;28;19911;-59
2021/05/11 17:37:37;;;;;;;;;;;23.00;67.20;;;;;;5103538;28;19904;-59
2021/05/11 17:40:07;;;;;;;;;;;23.10;67.20;;;;;;5103396;28;19908;-59
2021/05/11 17:42:33;;;;;;;;;;;23.10;67.30;;;;;;5103650;28;19972;-59
2021/05/11 17:44:59;;;;;;;;;;;23.10;67.20;;;;;;5103999;28;19939;-59
2021/05/11 17:47:24;;;;;;;;;;;23.20;67.30;;;;;;5103225;28;20311;-59
2021/05/11 17:49:52;;;;;;;;;;;23.20;67.20;;;;;;5103345;28;19915;-58
2021/05/11 17:52:18;;;;;;;;;;;23.30;67.40;;;;;;5102627;28;19912;-58
2021/05/11 17:54:45;;;;;;;;;;;23.30;67.30;;;;;;5103376;28;19998;-59
2021/05/11 17:57:11;;;;;;;;;;;23.30;67.30;;;;;;5103179;28;19915;-59
2021/05/11 17:59:37;;;;;;;;;;;23.30;67.60;;;;;;5103290;28;19908;-58
2021/05/11 18:02:03;;;;;;;;;;;23.30;67.20;;;;;;5103020;28;19904;-59
2021/05/11 18:04:29;;;;;;;;;;;23.40;67.40;;;;;;5103393;28;19912;-58
2021/05/11 18:06:55;;;;;;;;;;;23.40;67.30;;;;;;5102953;28;20280;-59
2021/05/11 18:09:21;;;;;;;;;;;23.50;67.30;;;;;;5103012;28;19915;-59
2021/05/11 18:11:47;;;;;;;;;;;23.50;67.20;;;;;;5102437;28;19947;-59
2021/05/11 18:14:13;;;;;;;;;;;23.50;67.10;;;;;;5084852;28;20679;-58
2021/05/11 18:16:40;;;;;;;;;;;23.50;67.00;;;;;;5103248;28;19904;-58
2021/05/11 18:19:06;;;;;;;;;;;23.50;67.10;;;;;;5099151;28;19930;-58
2021/05/11 18:21:32;;;;;;;;;;;23.60;67.00;;;;;;5102387;28;19908;-58
2021/05/11 18:23:58;;;;;;;;;;;23.60;66.90;;;;;;5103069;28;19908;-59
2021/05/11 18:26:25;;;;;;;;;;;23.60;66.90;;;;;;5102667;28;20339;-58
2021/05/11 18:28:51;;;;;;;;;;;23.60;66.80;;;;;;5102869;28;19908;-58
2021/05/11 18:31:18;;;;;;;;;;;23.70;66.70;;;;;;5101371;28;19918;-58
2021/05/11 18:33:45;;;;;;;;;;;23.70;66.70;;;;;;5102889;28;19907;-58
2021/05/11 18:39:05;;;;;;;;;;;23.70;66.70;;;;;;5082602;28;19912;-58
2021/05/11 18:41:30;;;;;;;;;;;23.80;66.90;;;;;;5101301;28;19908;-58